createdAt,value
2018-06-15T00:00:47.561Z,46.80
2018-06-15T00:03:15.682Z,52.93
2018-06-15T00:05:43.767Z,52.63
2018-06-15T00:08:11.850Z,51.53
2018-06-15T00:10:39.959Z,58.63
2018-06-15T00:13:08.023Z,55.33
2018-06-15T00:15:36.094Z,57.05
2018-06-15T00:18:04.359Z,51.97
2018-06-15T00:20:32.442Z,54.80
2018-06-15T00:23:00.547Z,60.83
2018-06-15T00:25:28.842Z,52.30
2018-06-15T00:27:57.014Z,62.77
2018-06-15T00:30:25.086Z,63.93
2018-06-15T00:32:53.165Z,68.20
2018-06-15T00:35:22.288Z,68.60
2018-06-15T00:37:50.368Z,67.70
2018-06-15T00:40:18.423Z,68.23
2018-06-15T00:42:46.514Z,69.73
2018-06-15T00:45:14.590Z,60.00
2018-06-15T00:47:42.674Z,65.17
2018-06-15T00:50:10.762Z,63.60
2018-06-15T00:52:38.826Z,66.37
2018-06-15T00:55:06.909Z,63.77
2018-06-15T00:57:46.598Z,65.03
2018-06-15T01:00:14.891Z,67.77
2018-06-15T01:02:43.190Z,68.40
2018-06-15T01:05:11.272Z,70.13
2018-06-15T01:07:39.350Z,77.17
2018-06-15T01:10:07.431Z,70.10
2018-06-15T01:12:35.538Z,62.50
2018-06-15T01:15:03.607Z,63.30
2018-06-15T01:17:31.760Z,62.63
2018-06-15T01:19:59.827Z,68.40
2018-06-15T01:22:27.921Z,65.90
2018-06-15T01:24:56.018Z,65.77
2018-06-15T01:27:24.090Z,64.33
2018-06-15T01:29:52.178Z,71.77
2018-06-15T01:32:20.258Z,70.47
2018-06-15T01:34:48.359Z,68.13
2018-06-15T01:37:16.414Z,73.33
2018-06-15T01:39:44.508Z,74.17
2018-06-15T01:42:12.590Z,70.90
2018-06-15T01:44:40.680Z,67.17
2018-06-15T01:47:08.756Z,73.37
2018-06-15T01:49:36.919Z,74.43
2018-06-15T01:52:05.010Z,66.87
2018-06-15T01:54:33.082Z,65.97
2018-06-15T01:57:01.154Z,76.90
2018-06-15T01:59:29.227Z,69.80
2018-06-15T02:01:57.320Z,75.20
2018-06-15T02:04:25.410Z,75.15
2018-06-15T02:06:53.474Z,73.20
2018-06-15T02:09:21.568Z,84.80
2018-06-15T02:11:49.651Z,71.57
2018-06-15T02:14:17.759Z,74.83
2018-06-15T02:16:45.822Z,62.03
2018-06-15T02:19:13.903Z,68.37
2018-06-15T02:21:41.974Z,71.60
2018-06-15T02:24:10.044Z,74.87
2018-06-15T02:26:38.126Z,87.47
2018-06-15T02:29:06.198Z,72.87
2018-06-15T02:31:34.270Z,83.10
2018-06-15T02:34:02.342Z,81.47
2018-06-15T02:36:30.426Z,76.67
2018-06-15T02:38:58.640Z,86.40
2018-06-15T02:41:26.715Z,92.03
2018-06-15T02:43:54.811Z,96.40
2018-06-15T02:46:22.900Z,101.70
2018-06-15T02:48:50.972Z,95.33
2018-06-15T02:51:19.185Z,89.90
2018-06-15T02:53:48.130Z,99.70
2018-06-15T02:56:16.219Z,104.40
2018-06-15T02:58:44.270Z,81.17
2018-06-15T03:01:12.343Z,84.93
2018-06-15T03:03:40.425Z,95.37
2018-06-15T03:06:08.535Z,79.20
2018-06-15T03:08:36.632Z,106.00
2018-06-15T03:11:04.714Z,96.10
2018-06-15T03:13:32.807Z,103.27
2018-06-15T03:16:00.902Z,92.40
2018-06-15T03:18:28.994Z,76.67
2018-06-15T03:20:57.062Z,75.37
2018-06-15T03:23:25.158Z,75.80
2018-06-15T03:25:53.232Z,76.33
2018-06-15T03:28:21.338Z,69.10
2018-06-15T03:30:49.437Z,70.47
2018-06-15T03:33:17.289Z,91.27
2018-06-15T03:35:45.358Z,76.77
2018-06-15T03:38:13.435Z,76.50
2018-06-15T03:40:41.520Z,82.97
2018-06-15T03:43:09.582Z,71.60
2018-06-15T03:45:37.666Z,75.13
2018-06-15T03:48:05.874Z,81.87
2018-06-15T03:50:33.964Z,84.23
2018-06-15T03:53:02.052Z,71.40
2018-06-15T03:55:30.163Z,86.70
2018-06-15T03:57:58.315Z,82.40
2018-06-15T04:00:26.410Z,89.23
2018-06-15T04:02:54.515Z,83.47
2018-06-15T04:07:05.527Z,81.20
2018-06-15T04:09:33.602Z,81.25
2018-06-15T04:12:01.692Z,80.13
2018-06-15T04:14:29.553Z,70.50
2018-06-15T04:16:57.628Z,66.20
2018-06-15T04:19:25.721Z,74.47
2018-06-15T04:21:53.859Z,75.50
2018-06-15T04:24:21.968Z,71.27
2018-06-15T04:26:49.837Z,86.60
2018-06-15T04:29:17.935Z,76.07
2018-06-15T04:31:46.011Z,80.23
2018-06-15T04:34:14.085Z,85.40
2018-06-15T04:36:42.191Z,90.93
2018-06-15T04:39:10.759Z,84.97
2018-06-15T04:41:38.932Z,88.70
2018-06-15T04:44:07.413Z,92.93
2018-06-15T04:46:35.501Z,88.03
2018-06-15T04:49:03.575Z,99.70
2018-06-15T04:51:31.634Z,90.60
2018-06-15T04:53:59.741Z,85.17
2018-06-15T04:56:27.880Z,81.97
2018-06-15T04:58:55.950Z,95.80
2018-06-15T05:01:24.027Z,93.13
2018-06-15T05:03:52.123Z,89.37
2018-06-15T05:06:20.242Z,84.33
2018-06-15T05:08:48.367Z,92.82
2018-06-15T05:11:16.449Z,98.10
2018-06-15T05:13:44.804Z,97.20
2018-06-15T05:16:12.882Z,85.53
2018-06-15T05:18:40.968Z,91.50
2018-06-15T05:21:10.362Z,102.53
2018-06-15T05:23:38.445Z,91.37
2018-06-15T05:26:06.547Z,104.27
2018-06-15T05:28:34.621Z,100.87
2018-06-15T05:31:02.694Z,94.43
2018-06-15T05:33:30.746Z,96.40
2018-06-15T05:35:59.328Z,100.77
2018-06-15T05:38:27.372Z,96.50
2018-06-15T05:40:55.628Z,102.00
2018-06-15T05:43:23.699Z,91.07
2018-06-15T05:45:51.768Z,87.97
2018-06-15T05:49:49.764Z,88.33
2018-06-15T05:52:18.142Z,86.70
2018-06-15T05:54:46.214Z,83.80
2018-06-15T05:57:14.270Z,77.60
2018-06-15T05:59:42.341Z,87.03
2018-06-15T06:02:10.435Z,83.83
2018-06-15T06:04:38.518Z,77.17
2018-06-15T06:07:06.763Z,78.80
2018-06-15T06:09:34.863Z,84.72
2018-06-15T06:12:02.974Z,79.83
2018-06-15T06:14:31.020Z,73.77
2018-06-15T06:16:59.102Z,69.57
2018-06-15T06:19:27.143Z,69.50
2018-06-15T06:21:55.263Z,71.90
2018-06-15T06:24:23.306Z,68.43
2018-06-15T06:26:51.385Z,69.10
2018-06-15T06:29:19.467Z,70.30
2018-06-15T06:31:47.534Z,64.53
2018-06-15T06:34:15.595Z,69.47
2018-06-15T06:36:43.665Z,66.93
2018-06-15T06:39:12.523Z,67.20
2018-06-15T06:41:40.595Z,67.33
2018-06-15T06:44:09.258Z,63.00
2018-06-15T06:46:37.319Z,68.07
2018-06-15T06:49:05.370Z,68.37
2018-06-15T06:51:33.567Z,66.37
2018-06-15T06:54:01.626Z,62.93
2018-06-15T06:56:29.701Z,62.60
2018-06-15T06:58:57.769Z,65.90
2018-06-15T07:01:25.837Z,65.70
2018-06-15T07:03:53.936Z,62.50
2018-06-15T07:06:22.016Z,60.93
2018-06-15T07:08:50.066Z,57.13
2018-06-15T07:11:18.148Z,67.50
2018-06-15T07:13:47.849Z,67.67
2018-06-15T07:16:15.894Z,67.90
2018-06-15T07:18:43.981Z,67.93
2018-06-15T07:21:12.160Z,68.00
2018-06-15T07:23:40.250Z,63.77
2018-06-15T07:26:08.261Z,73.37
2018-06-15T07:28:36.311Z,64.53
2018-06-15T07:31:04.369Z,61.43
2018-06-15T07:33:32.461Z,54.20
2018-06-15T07:36:00.509Z,59.60
2018-06-15T07:38:28.706Z,52.27
2018-06-15T07:40:56.771Z,49.65
2018-06-15T07:43:24.843Z,43.50
2018-06-15T07:45:52.908Z,51.68
2018-06-15T07:48:20.987Z,59.93
2018-06-15T07:50:48.869Z,54.53
2018-06-15T07:53:16.949Z,52.47
2018-06-15T07:55:45.022Z,48.10
2018-06-15T07:58:12.910Z,54.20
2018-06-15T08:00:41.009Z,47.50
2018-06-15T08:03:09.080Z,47.97
2018-06-15T08:05:37.181Z,45.60
2018-06-15T08:08:05.296Z,40.03
2018-06-15T08:10:33.371Z,38.38
2018-06-15T08:13:01.447Z,34.25
2018-06-15T08:15:29.514Z,33.48
2018-06-15T08:17:57.615Z,33.42
2018-06-15T08:20:25.692Z,32.13
2018-06-15T08:22:53.811Z,25.72
2018-06-15T08:25:21.902Z,31.37
2018-06-15T08:27:50.002Z,26.20
2018-06-15T08:30:18.090Z,23.57
2018-06-15T08:32:46.271Z,24.20
2018-06-15T08:35:16.087Z,33.33
2018-06-15T08:37:44.486Z,26.93
2018-06-15T08:40:12.556Z,26.48
2018-06-15T08:42:41.102Z,25.88
2018-06-15T08:45:09.189Z,26.57
2018-06-15T08:47:37.506Z,28.73
2018-06-15T08:50:05.674Z,29.42
2018-06-15T08:52:33.900Z,24.87
2018-06-15T08:55:02.305Z,24.95
2018-06-15T08:57:30.404Z,25.68
2018-06-15T09:00:23.252Z,27.73
2018-06-15T09:02:51.461Z,25.27
2018-06-15T09:05:19.550Z,24.00
2018-06-15T09:07:47.651Z,22.22
2018-06-15T09:10:15.740Z,23.40
2018-06-15T09:12:43.831Z,18.67
2018-06-15T09:15:11.926Z,25.97
2018-06-15T09:17:41.166Z,22.60
2018-06-15T09:20:09.265Z,26.15
2018-06-15T09:22:37.335Z,20.40
2018-06-15T09:25:05.600Z,21.93
2018-06-15T09:27:34.047Z,27.07
2018-06-15T09:30:02.195Z,23.20
2018-06-15T09:32:31.125Z,22.75
2018-06-15T09:34:59.221Z,25.10
2018-06-15T09:37:27.423Z,23.12
2018-06-15T09:39:55.879Z,23.55
2018-06-15T09:42:24.106Z,16.82
2018-06-15T09:44:52.194Z,19.52
2018-06-15T09:47:20.519Z,17.85
2018-06-15T09:49:48.656Z,20.55
2018-06-15T09:52:16.775Z,18.62
2018-06-15T09:54:44.911Z,19.32
2018-06-15T09:57:12.983Z,22.85
2018-06-15T09:59:41.088Z,17.98
2018-06-15T10:02:09.234Z,19.48
2018-06-15T10:04:37.415Z,17.45
2018-06-15T10:07:05.690Z,16.82
2018-06-15T10:09:33.792Z,15.00
2018-06-15T10:12:02.412Z,19.05
2018-06-15T10:14:30.641Z,18.98
2018-06-15T10:16:58.998Z,19.32
2018-06-15T10:19:27.102Z,19.75
2018-06-15T10:21:55.182Z,14.85
2018-06-15T10:24:23.254Z,15.48
2018-06-15T10:26:51.666Z,17.95
2018-06-15T10:29:19.792Z,19.70
2018-06-15T10:32:07.847Z,17.60
2018-06-15T10:34:38.728Z,18.92
2018-06-15T10:37:06.914Z,18.55
2018-06-15T10:39:35.025Z,17.45
2018-06-15T10:42:03.093Z,16.42
2018-06-15T10:44:31.162Z,20.23
2018-06-15T10:48:28.523Z,18.73
2018-06-15T10:50:56.614Z,20.17
2018-06-15T10:53:24.721Z,24.30
2018-06-15T10:55:53.220Z,18.62
2018-06-15T10:58:21.291Z,19.48
2018-06-15T11:00:49.396Z,18.23
2018-06-15T11:03:17.528Z,20.10
2018-06-15T11:05:46.989Z,16.30
2018-06-15T11:08:16.772Z,17.45
2018-06-15T11:10:44.831Z,18.30
2018-06-15T11:13:12.930Z,15.60
2018-06-15T11:15:41.018Z,18.50
2018-06-15T11:18:09.090Z,15.63
2018-06-15T11:20:37.331Z,14.45
2018-06-15T11:23:05.403Z,13.45
2018-06-15T11:25:33.490Z,18.48
2018-06-15T11:28:01.569Z,12.75
2018-06-15T11:30:29.638Z,9.78
2018-06-15T11:32:57.713Z,10.90
2018-06-15T11:35:25.795Z,12.93
2018-06-15T11:37:53.682Z,11.60
2018-06-15T11:40:21.807Z,11.48
2018-06-15T11:42:49.939Z,13.88
2018-06-15T11:45:18.011Z,11.00
2018-06-15T11:47:46.110Z,11.38
2018-06-15T11:50:14.182Z,13.15
2018-06-15T11:52:42.463Z,11.90
2018-06-15T11:55:10.534Z,11.68
2018-06-15T11:57:38.602Z,11.55
2018-06-15T12:00:06.800Z,15.35
2018-06-15T12:02:34.866Z,13.58
2018-06-15T12:05:02.955Z,18.00
2018-06-15T12:07:31.030Z,16.20
2018-06-15T12:09:58.891Z,12.60
2018-06-15T12:12:26.978Z,15.63
2018-06-15T12:14:55.059Z,14.43
2018-06-15T12:17:23.134Z,17.30
2018-06-15T12:19:51.207Z,12.03
2018-06-15T12:22:19.301Z,13.27
2018-06-15T12:24:47.495Z,12.30
2018-06-15T12:27:15.600Z,12.90
2018-06-15T12:29:43.825Z,14.45
2018-06-15T12:32:11.881Z,18.32
2018-06-15T12:34:39.987Z,19.55
2018-06-15T12:37:08.111Z,15.63
2018-06-15T12:39:36.202Z,12.73
2018-06-15T12:42:04.302Z,12.75
2018-06-15T12:44:32.374Z,14.18
2018-06-15T12:47:00.482Z,12.03
2018-06-15T12:49:28.544Z,12.95
2018-06-15T12:51:56.618Z,12.58
2018-06-15T12:54:24.686Z,9.93
2018-06-15T12:56:52.745Z,8.85
2018-06-15T12:59:20.862Z,8.05
2018-06-15T13:01:49.426Z,10.85
2018-06-15T13:04:17.527Z,10.10
2018-06-15T13:06:45.601Z,11.85
2018-06-15T13:09:13.647Z,8.83
2018-06-15T13:11:41.734Z,9.90
2018-06-15T13:14:09.612Z,11.50
2018-06-15T13:16:37.659Z,9.65
2018-06-15T13:19:05.754Z,8.30
2018-06-15T13:21:33.866Z,10.03
2018-06-15T13:24:02.079Z,11.15
2018-06-15T13:26:31.076Z,11.15
2018-06-15T13:28:59.146Z,13.08
2018-06-15T13:31:27.259Z,10.45
2018-06-15T13:33:55.312Z,11.10
2018-06-15T13:36:23.742Z,11.85
2018-06-15T13:38:51.810Z,8.95
2018-06-15T13:41:19.895Z,10.30
2018-06-15T13:43:48.011Z,10.15
2018-06-15T13:46:16.083Z,10.95
2018-06-15T13:48:44.164Z,13.20
2018-06-15T13:51:12.229Z,9.75
2018-06-15T13:53:40.298Z,11.48
2018-06-15T13:56:08.370Z,7.90
2018-06-15T13:58:36.442Z,7.95
2018-06-15T14:01:04.521Z,8.15
2018-06-15T14:03:32.578Z,12.75
2018-06-15T14:06:00.659Z,8.03
2018-06-15T14:08:28.750Z,13.95
2018-06-15T14:10:56.815Z,9.35
2018-06-15T14:13:24.922Z,9.85
2018-06-15T14:15:53.007Z,12.15
2018-06-15T14:18:20.938Z,8.45
2018-06-15T14:20:49.047Z,10.60
2018-06-15T14:23:17.131Z,13.13
2018-06-15T14:25:45.249Z,13.28
2018-06-15T14:28:13.326Z,9.73
2018-06-15T14:30:41.431Z,10.90
2018-06-15T14:33:09.550Z,8.38
2018-06-15T14:35:37.614Z,9.58
2018-06-15T14:38:05.701Z,7.45
2018-06-15T14:40:33.832Z,8.85
2018-06-15T14:43:01.861Z,10.72
2018-06-15T14:45:29.931Z,6.92
2018-06-15T14:47:58.003Z,9.35
2018-06-15T14:50:26.101Z,9.73
2018-06-15T14:52:54.217Z,11.65
2018-06-15T14:55:22.318Z,8.98
2018-06-15T14:57:50.477Z,9.40
2018-06-15T15:00:18.544Z,10.28
2018-06-15T15:02:46.993Z,14.53
2018-06-15T15:05:15.062Z,10.75
2018-06-15T15:07:42.990Z,9.68
2018-06-15T15:10:11.076Z,10.72
2018-06-15T15:12:39.328Z,13.78
2018-06-15T15:15:07.424Z,11.65
2018-06-15T15:17:35.486Z,13.03
2018-06-15T15:20:03.546Z,11.55
2018-06-15T15:22:31.679Z,16.23
2018-06-15T15:25:00.022Z,11.95
2018-06-15T15:27:28.117Z,10.05
2018-06-15T15:29:56.241Z,14.75
2018-06-15T15:32:24.290Z,15.08
2018-06-15T15:34:52.360Z,10.70
2018-06-15T15:37:20.431Z,13.13
2018-06-15T15:39:48.506Z,11.83
2018-06-15T15:42:16.587Z,12.33
2018-06-15T15:44:44.681Z,11.30
2018-06-15T15:47:13.143Z,12.63
2018-06-15T15:49:41.218Z,11.00
2018-06-15T15:52:09.312Z,13.98
2018-06-15T15:54:37.406Z,9.15
2018-06-15T15:57:05.523Z,12.45
2018-06-15T15:59:33.743Z,10.60
2018-06-15T16:02:01.823Z,12.58
2018-06-15T16:04:29.926Z,9.73
2018-06-15T16:06:57.992Z,12.03
2018-06-15T16:09:26.058Z,14.95
2018-06-15T16:11:54.536Z,8.30
2018-06-15T16:14:27.872Z,10.35
2018-06-15T16:16:55.987Z,10.20
2018-06-15T16:19:24.078Z,10.38
2018-06-15T16:21:52.186Z,11.97
2018-06-15T16:24:20.294Z,9.95
2018-06-15T16:26:48.359Z,10.85
2018-06-15T16:29:16.472Z,11.22
2018-06-15T16:31:44.556Z,13.83
2018-06-15T16:34:12.655Z,13.45
2018-06-15T16:36:41.054Z,14.95
2018-06-15T16:39:09.740Z,16.05
2018-06-15T16:41:38.430Z,18.75
2018-06-15T16:44:06.601Z,20.48
2018-06-15T16:46:34.714Z,16.62
2018-06-15T16:49:02.791Z,18.87
2018-06-15T16:51:30.927Z,20.00
2018-06-15T16:53:59.006Z,17.95
2018-06-15T16:56:27.076Z,20.52
2018-06-15T16:58:55.210Z,18.07
2018-06-15T17:01:23.296Z,16.27
2018-06-15T17:03:51.386Z,19.50
2018-06-15T17:06:19.466Z,17.35
2018-06-15T17:08:47.632Z,21.25
2018-06-15T17:11:15.707Z,19.15
2018-06-15T17:13:43.794Z,19.45
2018-06-15T17:16:11.925Z,20.48
2018-06-15T17:18:39.888Z,22.58
2018-06-15T17:21:07.969Z,17.67
2018-06-15T17:23:36.046Z,20.08
2018-06-15T17:26:04.130Z,20.70
2018-06-15T17:28:32.243Z,23.98
2018-06-15T17:31:00.343Z,23.50
2018-06-15T17:33:28.427Z,25.77
2018-06-15T17:35:56.500Z,23.67
2018-06-15T17:38:24.579Z,24.87
2018-06-15T17:40:52.739Z,19.70
2018-06-15T17:43:20.929Z,21.05
2018-06-15T17:45:48.999Z,22.45
2018-06-15T17:48:17.089Z,25.25
2018-06-15T17:50:45.178Z,28.80
2018-06-15T17:53:13.286Z,30.00
2018-06-15T17:55:41.924Z,24.98
2018-06-15T17:58:10.032Z,22.02
2018-06-15T18:00:38.227Z,26.17
2018-06-15T18:03:06.495Z,34.40
2018-06-15T18:05:34.590Z,21.85
2018-06-15T18:08:02.751Z,24.35
2018-06-15T18:10:30.844Z,24.20
2018-06-15T18:12:58.910Z,23.10
2018-06-15T18:15:26.992Z,27.30
2018-06-15T18:17:55.086Z,21.03
2018-06-15T18:20:23.798Z,22.35
2018-06-15T18:22:51.948Z,20.60
2018-06-15T18:25:20.019Z,21.25
2018-06-15T18:27:48.098Z,19.42
2018-06-15T18:30:16.205Z,16.67
2018-06-15T18:32:44.268Z,18.98
2018-06-15T18:35:12.357Z,22.80
2018-06-15T18:37:41.172Z,18.37
2018-06-15T18:40:14.624Z,17.95
2018-06-15T18:42:42.953Z,19.10
2018-06-15T18:45:11.044Z,19.30
2018-06-15T18:47:39.122Z,19.55
2018-06-15T18:50:07.192Z,18.12
2018-06-15T18:52:35.391Z,20.20
2018-06-15T18:55:03.482Z,22.42
2018-06-15T18:57:31.547Z,22.93
2018-06-15T18:59:59.634Z,17.27
2018-06-15T19:02:27.732Z,15.85
2018-06-15T19:04:55.878Z,20.52
2018-06-15T19:07:23.998Z,15.50
2018-06-15T19:09:52.326Z,19.02
2018-06-15T19:12:20.420Z,16.97
2018-06-15T19:14:48.548Z,20.12
2018-06-15T19:17:16.647Z,19.05
2018-06-15T19:19:44.826Z,21.82
2018-06-15T19:22:12.910Z,22.15
2018-06-15T19:24:40.987Z,19.73
2018-06-15T19:27:09.088Z,22.17
2018-06-15T19:29:37.188Z,18.30
2018-06-15T19:32:05.285Z,22.15
2018-06-15T19:34:33.365Z,21.55
2018-06-15T19:37:01.431Z,24.27
2018-06-15T19:39:29.522Z,23.47
2018-06-15T19:41:57.644Z,22.75
2018-06-15T19:44:25.744Z,23.55
2018-06-15T19:46:53.830Z,22.15
2018-06-15T19:49:22.132Z,17.60
2018-06-15T19:51:50.231Z,22.80
2018-06-15T19:54:18.321Z,25.75
2018-06-15T19:56:46.427Z,24.30
2018-06-15T19:59:14.547Z,20.92
2018-06-15T20:01:42.646Z,19.75
2018-06-15T20:04:10.750Z,23.07
2018-06-15T20:06:38.830Z,25.35
2018-06-15T20:09:07.919Z,26.93
2018-06-15T20:11:36.398Z,24.33
2018-06-15T20:14:04.527Z,22.37
2018-06-15T20:16:32.748Z,23.07
2018-06-15T20:19:01.254Z,28.00
2018-06-15T20:21:29.366Z,25.20
2018-06-15T20:23:57.477Z,23.67
2018-06-15T20:26:25.566Z,30.20
2018-06-15T20:28:53.636Z,26.73
2018-06-15T20:31:21.723Z,29.37
2018-06-15T20:33:49.861Z,27.67
2018-06-15T20:36:18.084Z,26.17
2018-06-15T20:38:46.085Z,24.15
2018-06-15T20:41:14.183Z,24.90
2018-06-15T20:43:42.294Z,22.35
2018-06-15T20:46:10.514Z,27.17
2018-06-15T20:48:38.616Z,25.82
2018-06-15T20:51:06.710Z,27.17
2018-06-15T20:53:34.786Z,22.98
2018-06-15T20:56:03.091Z,28.23
2018-06-15T20:58:31.252Z,28.12
2018-06-15T21:00:59.287Z,29.40
2018-06-15T21:03:27.195Z,28.80
2018-06-15T21:05:55.309Z,28.67
2018-06-15T21:08:23.529Z,23.98
2018-06-15T21:10:51.718Z,24.67
2018-06-15T21:13:19.806Z,32.45
2018-06-15T21:15:47.886Z,30.85
2018-06-15T21:18:15.974Z,28.42
2018-06-15T21:20:44.140Z,30.27
2018-06-15T21:23:12.243Z,26.40
2018-06-15T21:25:40.354Z,25.88
2018-06-15T21:28:08.454Z,28.47
2018-06-15T21:30:36.538Z,32.20
2018-06-15T21:33:04.642Z,27.90
2018-06-15T21:35:32.769Z,27.02
2018-06-15T21:38:00.841Z,27.73
2018-06-15T21:40:28.934Z,27.40
2018-06-15T21:42:56.798Z,28.65
2018-06-15T21:45:24.919Z,29.90
2018-06-15T21:47:53.028Z,37.45
2018-06-15T21:50:21.933Z,26.60
2018-06-15T21:52:50.048Z,31.12
2018-06-15T21:55:18.126Z,25.52
2018-06-15T21:57:46.251Z,29.27
2018-06-15T22:00:14.555Z,23.32
2018-06-15T22:02:42.882Z,26.57
2018-06-15T22:05:11.247Z,25.57
2018-06-15T22:07:39.321Z,25.50
2018-06-15T22:10:07.418Z,28.17
2018-06-15T22:12:35.520Z,26.17
2018-06-15T22:15:03.577Z,31.65
2018-06-15T22:17:31.651Z,27.10
2018-06-15T22:19:59.733Z,28.63
2018-06-15T22:22:27.847Z,24.45
2018-06-15T22:24:56.038Z,23.67
2018-06-15T22:27:24.114Z,27.80
2018-06-15T22:29:52.218Z,30.83
2018-06-15T22:32:20.426Z,27.40
2018-06-15T22:34:48.499Z,24.50
2018-06-15T22:37:16.586Z,27.43
2018-06-15T22:39:44.671Z,24.87
2018-06-15T22:42:12.766Z,26.90
2018-06-15T22:44:40.847Z,25.00
2018-06-15T22:47:08.928Z,23.83
2018-06-15T22:49:37.031Z,23.50
2018-06-15T22:52:05.183Z,26.20
2018-06-15T22:54:33.259Z,22.37
2018-06-15T22:57:01.352Z,23.70
2018-06-15T22:59:29.430Z,26.73
2018-06-15T23:01:57.566Z,18.03
2018-06-15T23:04:25.638Z,22.23
2018-06-15T23:06:53.718Z,20.37
2018-06-15T23:09:21.810Z,21.73
2018-06-15T23:11:49.881Z,22.25
2018-06-15T23:14:18.090Z,24.60
2018-06-15T23:16:46.155Z,25.53
2018-06-15T23:19:14.254Z,24.83
2018-06-15T23:21:42.337Z,25.27
2018-06-15T23:24:10.266Z,24.60
2018-06-15T23:26:38.354Z,23.83
2018-06-15T23:29:06.452Z,21.90
2018-06-15T23:31:34.542Z,26.67
2018-06-15T23:34:02.656Z,26.43
2018-06-15T23:36:30.730Z,24.33
2018-06-15T23:38:58.806Z,25.27
2018-06-15T23:41:26.886Z,23.00
2018-06-15T23:43:55.019Z,24.93
2018-06-15T23:46:23.091Z,24.27
2018-06-15T23:48:55.984Z,24.03
2018-06-15T23:51:24.091Z,22.77
2018-06-15T23:53:52.205Z,27.13
2018-06-15T23:56:20.298Z,24.45
2018-06-15T23:58:48.365Z,22.97
